メインページ
METAR-TAF:

METAR-TAF

空港 :

シモン・ボリバル国際空港

カラカス, ベネズエラ

緯度: 10-36N, 経度: 066-59W, 海抜: 43m

現時点の気象観測

当レポートは22時間26分前の19:00(UTC)に作成
東/南東の風 3kt
気温 31°C
湿度 66%
気圧 1008 hPa
視程10km以上
高度1600ftの雲は散在している

METAR: SVMI 171900Z 11003KT 9999 SCT016 31/24 Q1008

時間: 13:26 (17:26 UTC)

予報

当レポートは7時間26分前の10:00(UTC)に作成
予報は17日の 12時(UTC)から 18日の 12時(UTC)まで有効
の風 kt
視程10km以上
高度1600ftの雲は散在している
17日の 1300時(UTC)から
北東の風 3kt
視程10km以上
高度1600ftの雲はほとんどない
17日の 17時(UTC)から 17日の 22時(UTC)まで徐々に
北東の風 10kt
高度1600ftの雲は散在している

TAF: SVMI 171000Z 1712/1812 00000KT 9999 SCT016 TX32/18Z TN24/08Z FM171300 05003KT 9999 FEW016 BECMG 1717/1722 05010KT SCT016

4,000以上の空港の気象観測と天気予報(METAR報とTAF報)

利用可能な観測所は地図上に黄色い丸と赤い丸で示す。

丸の上にカーソルを重ねると観測所名を参照できる。

次にクリックすると気象観測と天気予報を参照できる。

マップの切り替え:黒色「×」印の緑ボタンをクリックして拡大、「-」印の緑ボタンをクリックして縮小、緑色の三角印をクリックして隣りの地図に切り替え


METAR-TAF: